Time;durP1;ratioP1;P1;durP2;ratioP2;P2;SDS_P1;SDS_P2;PMS_P1;PMS_P2;Temp;Humidity;BMP_temperature;BMP_pressure;BME280_temperature;BME280_humidity;BME280_pressure;Samples;Min_cycle;Max_cycle;Signal;HPM_P1;HPM_P2
2022/06/16 00:00:44;;;;;;;;;;;;;;;24.53;45.02;99400.19;7306090;19;130545;-40
2022/06/16 00:03:10;;;;;;;;;;;;;;;24.53;44.72;99402.81;7309388;19;130841;-40
2022/06/16 00:05:36;;;;;;;;;;;;;;;24.55;44.61;99406.06;7306895;19;130451;-39
2022/06/16 00:08:02;;;;;;;;;;;;;;;24.55;44.17;99398.19;7311161;19;129134;-40
2022/06/16 00:10:28;;;;;;;;;;;;;;;24.55;44.79;99399.03;7309972;19;129549;-39
2022/06/16 00:12:53;;;;;;;;;;;;;;;24.72;48.72;99389.38;7311084;19;130966;-40
2022/06/16 00:15:21;;;;;;;;;;;;;;;24.89;49.46;99386.56;7308316;19;129000;-38
2022/06/16 00:17:46;;;;;;;;;;;;;;;25.02;50.02;99388.69;7310563;19;129281;-39
2022/06/16 00:20:11;;;;;;;;;;;;;;;25.09;50.46;99387.03;7307939;19;130088;-41
2022/06/16 00:22:37;;;;;;;;;;;;;;;25.16;50.04;99393.25;7310697;19;131015;-38
2022/06/16 00:25:03;;;;;;;;;;;;;;;25.18;49.88;99391.28;7311474;19;130068;-38
2022/06/16 00:27:28;;;;;;;;;;;;;;;25.20;50.47;99384.06;7310490;19;129554;-37
2022/06/16 00:29:54;;;;;;;;;;;;;;;25.24;50.09;99393.25;7310737;19;131515;-40
2022/06/16 00:32:19;;;;;;;;;;;;;;;25.23;50.61;99379.28;7309047;19;129381;-39
2022/06/16 00:34:44;;;;;;;;;;;;;;;25.26;50.52;99383.38;7308092;19;130487;-38
2022/06/16 00:37:09;;;;;;;;;;;;;;;25.27;50.51;99380.56;7309609;19;129282;-38
2022/06/16 00:39:34;;;;;;;;;;;;;;;24.77;45.51;99387.06;7306248;19;130586;-40
2022/06/16 00:42:10;;;;;;;;;;;;;;;24.60;45.08;99390.63;7309044;19;130546;-40
2022/06/16 00:44:37;;;;;;;;;;;;;;;24.49;44.69;99384.72;7309931;19;129779;-39
2022/06/16 00:47:03;;;;;;;;;;;;;;;24.50;45.10;99375.03;7309851;19;129071;-38
2022/06/16 00:49:28;;;;;;;;;;;;;;;24.54;45.14;99384.25;7307688;19;129047;-39
2022/06/16 00:51:56;;;;;;;;;;;;;;;24.55;44.35;99372.75;7309433;19;130497;-39
2022/06/16 00:54:28;;;;;;;;;;;;;;;24.55;44.95;99372.75;7308880;19;130004;-40
2022/06/16 00:56:55;;;;;;;;;;;;;;;24.57;44.78;99376.03;7310186;19;129001;-39
2022/06/16 00:59:22;;;;;;;;;;;;;;;24.58;44.64;99379.50;7307254;19;129973;-40
2022/06/16 01:01:47;;;;;;;;;;;;;;;24.69;47.76;99373.94;7308704;19;129832;-40
2022/06/16 01:06:57;;;;;;;;;;;;;;;25.02;49.46;99368.47;7292683;19;131286;-40
2022/06/16 01:09:24;;;;;;;;;;;;;;;25.10;49.79;99372.88;7291031;19;130578;-39
2022/06/16 01:14:52;;;;;;;;;;;;;;;25.23;50.25;99360.03;7294062;19;131616;-37
2022/06/16 01:17:20;;;;;;;;;;;;;;;25.25;50.07;99363.31;7305212;19;130031;-39
2022/06/16 01:19:55;;;;;;;;;;;;;;;25.27;50.64;99374.50;7308034;19;129374;-40
2022/06/16 01:22:33;;;;;;;;;;;;;;;25.27;51.08;99363.97;7308833;19;129761;-40
2022/06/16 01:25:12;;;;;;;;;;;;;;;25.30;50.77;99366.25;7311091;19;131760;-40
2022/06/16 01:27:44;;;;;;;;;;;;;;;25.29;50.66;99367.25;7305732;19;128815;-39
2022/06/16 01:30:17;;;;;;;;;;;;;;;24.81;45.18;99362.91;7307524;19;130247;-38
2022/06/16 01:32:49;;;;;;;;;;;;;;;24.64;45.74;99363.03;7307283;19;129905;-40
2022/06/16 01:35:26;;;;;;;;;;;;;;;24.59;44.71;99363.56;7311913;19;131366;-40
2022/06/16 01:38:01;;;;;;;;;;;;;;;24.57;45.05;99359.44;7316630;19;129059;-37
2022/06/16 01:40:37;;;;;;;;;;;;;;;24.54;44.82;99357.97;7316630;19;129100;-39
2022/06/16 01:43:17;;;;;;;;;;;;;;;24.55;44.31;99356.97;7314682;19;129560;-39
2022/06/16 01:45:42;;;;;;;;;;;;;;;24.56;44.86;99363.06;7316227;19;130670;-39
2022/06/16 01:48:10;;;;;;;;;;;;;;;24.58;44.21;99369.78;7315776;19;128998;-39
2022/06/16 01:50:39;;;;;;;;;;;;;;;24.60;44.67;99370.44;7316008;19;129417;-39
2022/06/16 01:53:07;;;;;;;;;;;;;;;24.77;49.06;99368.66;7314933;19;130183;-40
2022/06/16 01:55:36;;;;;;;;;;;;;;;24.94;49.59;99362.41;7314073;19;130674;-38
2022/06/16 01:58:05;;;;;;;;;;;;;;;25.06;49.61;99366.31;7315672;19;129677;-40
2022/06/16 02:00:34;;;;;;;;;;;;;;;25.14;50.00;99361.06;7313832;19;129287;-40
2022/06/16 02:03:05;;;;;;;;;;;;;;;25.19;49.71;99361.34;7314753;19;130896;-40
2022/06/16 02:05:47;;;;;;;;;;;;;;;25.24;50.76;99359.03;7313915;19;129126;-38
2022/06/16 02:08:18;;;;;;;;;;;;;;;25.27;50.45;99358.72;7314729;19;130792;-39
2022/06/16 02:10:52;;;;;;;;;;;;;;;25.29;50.67;99351.44;7315564;19;129601;-40
2022/06/16 02:13:21;;;;;;;;;;;;;;;25.30;51.02;99347.84;7315086;19;129193;-38
2022/06/16 02:15:53;;;;;;;;;;;;;;;25.30;50.55;99359.16;7313205;19;131004;-39
2022/06/16 02:18:21;;;;;;;;;;;;;;;24.74;45.47;99355.84;7314521;19;130928;-38
2022/06/16 02:20:49;;;;;;;;;;;;;;;24.61;44.95;99347.63;7308099;19;129678;-39
2022/06/16 02:23:14;;;;;;;;;;;;;;;24.58;45.04;99355.84;7315925;19;129422;-41
2022/06/16 02:25:40;;;;;;;;;;;;;;;24.55;45.18;99341.19;7312503;19;129179;-37
2022/06/16 02:28:05;;;;;;;;;;;;;;;24.57;45.02;99351.53;7315132;19;128942;-38
2022/06/16 02:30:34;;;;;;;;;;;;;;;24.58;44.97;99342.69;7314637;19;130361;-39
2022/06/16 02:33:06;;;;;;;;;;;;;;;24.60;44.54;99348.56;7313918;19;129209;-40
2022/06/16 02:35:42;;;;;;;;;;;;;;;24.60;44.42;99345.94;7312430;19;129122;-39
2022/06/16 02:38:10;;;;;;;;;;;;;;;24.60;44.32;99346.78;7315503;19;129179;-40
2022/06/16 02:40:54;;;;;;;;;;;;;;;24.73;49.45;99338.41;7313025;19;129067;-39
2022/06/16 02:43:36;;;;;;;;;;;;;;;25.02;49.46;99349.25;7309867;19;131127;-37
2022/06/16 02:46:07;;;;;;;;;;;;;;;25.01;50.10;99331.78;7315704;19;129409;-41
2022/06/16 02:48:32;;;;;;;;;;;;;;;25.18;49.97;99344.75;7313181;19;129421;-39
2022/06/16 02:51:12;;;;;;;;;;;;;;;25.23;50.63;99352.13;7313187;19;129868;-40
2022/06/16 02:56:35;;;;;;;;;;;;;;;25.27;50.66;99340.28;7314111;19;130329;-40
2022/06/16 02:59:03;;;;;;;;;;;;;;;25.20;50.79;99328.78;7309265;19;129027;-39
2022/06/16 03:01:31;;;;;;;;;;;;;;;25.22;50.62;99332.09;7315822;19;129842;-38
2022/06/16 03:04:00;;;;;;;;;;;;;;;25.21;51.26;99322.53;7310011;19;129199;-37
2022/06/16 03:06:25;;;;;;;;;;;;;;;24.95;46.10;99337.72;7310616;19;129725;-40
2022/06/16 03:08:50;;;;;;;;;;;;;;;24.67;45.42;99341.69;7309852;19;129386;-37
2022/06/16 03:11:15;;;;;;;;;;;;;;;24.59;45.00;99341.69;7295092;19;131035;-38
2022/06/16 03:13:41;;;;;;;;;;;;;;;24.59;44.55;99336.44;7296070;19;130050;-39
2022/06/16 03:16:09;;;;;;;;;;;;;;;24.58;44.80;99324.28;7300286;19;131280;-37
2022/06/16 03:18:34;;;;;;;;;;;;;;;24.57;44.44;99323.47;7295523;19;130514;-37
2022/06/16 03:21:00;;;;;;;;;;;;;;;24.59;44.57;99333.81;7311079;19;130286;-39
2022/06/16 03:23:26;;;;;;;;;;;;;;;24.60;44.07;99327.53;7309140;19;130281;-40
2022/06/16 03:25:51;;;;;;;;;;;;;;;24.60;44.69;99331.00;7312456;19;129457;-39
2022/06/16 03:28:16;;;;;;;;;;;;;;;24.63;44.28;99337.72;7310964;19;129045;-37
2022/06/16 03:30:42;;;;;;;;;;;;;;;24.83;48.83;99333.81;7309687;19;130031;-40
2022/06/16 03:33:08;;;;;;;;;;;;;;;25.01;49.51;99339.69;7313754;19;130466;-39
2022/06/16 03:35:33;;;;;;;;;;;;;;;25.10;49.51;99336.06;7310510;19;131552;-39
2022/06/16 03:38:02;;;;;;;;;;;;;;;25.16;49.50;99341.47;7313281;19;129537;-39
2022/06/16 03:40:28;;;;;;;;;;;;;;;25.21;49.99;99330.44;7312611;19;130381;-37
2022/06/16 03:42:53;;;;;;;;;;;;;;;25.24;50.63;99328.28;7311272;19;131649;-38
2022/06/16 03:45:18;;;;;;;;;;;;;;;25.19;50.00;99319.25;7311512;19;129190;-40
2022/06/16 03:47:44;;;;;;;;;;;;;;;25.31;50.32;99331.88;7309170;19;129101;-39
2022/06/16 03:50:12;;;;;;;;;;;;;;;25.31;50.81;99337.16;7299473;19;130613;-39
2022/06/16 03:52:37;;;;;;;;;;;;;;;25.32;50.76;99330.09;7302399;19;130151;-37
2022/06/16 03:55:03;;;;;;;;;;;;;;;24.81;45.43;99327.91;7306398;19;129592;-38
2022/06/16 03:57:28;;;;;;;;;;;;;;;24.68;45.11;99341.53;7306021;19;130446;-37
2022/06/16 03:59:53;;;;;;;;;;;;;;;24.64;45.35;99352.53;7303227;19;130245;-36
2022/06/16 04:02:19;;;;;;;;;;;;;;;24.62;45.24;99346.63;7306474;19;130236;-37
2022/06/16 04:04:45;;;;;;;;;;;;;;;24.61;45.00;99352.88;7306626;19;130009;-37
2022/06/16 04:07:10;;;;;;;;;;;;;;;24.60;44.40;99349.41;7303083;19;130530;-37
2022/06/16 04:09:36;;;;;;;;;;;;;;;24.65;45.02;99356.78;7308666;19;130216;-37
2022/06/16 04:12:01;;;;;;;;;;;;;;;24.66;44.47;99366.34;7304514;19;129929;-37
2022/06/16 04:14:26;;;;;;;;;;;;;;;24.66;45.06;99358.44;7310854;19;129808;-37
2022/06/16 04:16:52;;;;;;;;;;;;;;;24.64;44.48;99348.09;7311481;19;129452;-37
2022/06/16 04:19:19;;;;;;;;;;;;;;;24.67;44.17;99349.56;7305683;19;130441;-37
2022/06/16 04:21:47;;;;;;;;;;;;;;;24.89;49.08;99347.09;7310278;19;130310;-37
2022/06/16 04:24:12;;;;;;;;;;;;;;;25.03;49.57;99340.34;7306144;19;129959;-37
2022/06/16 04:26:38;;;;;;;;;;;;;;;25.14;50.13;99338.19;7309832;19;129930;-37
2022/06/16 04:29:04;;;;;;;;;;;;;;;25.19;50.32;99337.66;7306863;19;129474;-36
2022/06/16 04:31:30;;;;;;;;;;;;;;;25.24;50.21;99337.97;7309006;19;131070;-37
2022/06/16 04:33:55;;;;;;;;;;;;;;;25.19;50.29;99329.78;7309714;19;129241;-37
2022/06/16 04:36:21;;;;;;;;;;;;;;;25.29;49.96;99352.28;7311764;19;130221;-37
2022/06/16 04:38:48;;;;;;;;;;;;;;;25.29;50.70;99347.00;7310209;19;130138;-37
2022/06/16 04:41:14;;;;;;;;;;;;;;;25.31;51.19;99345.03;7310637;19;130271;-37
2022/06/16 04:43:39;;;;;;;;;;;;;;;25.33;50.51;99350.97;7309607;19;129085;-37
2022/06/16 04:46:05;;;;;;;;;;;;;;;25.34;51.18;99349.97;7306786;19;129380;-37
2022/06/16 04:48:30;;;;;;;;;;;;;;;24.87;45.67;99341.22;7309205;19;130972;-36
2022/06/16 04:50:56;;;;;;;;;;;;;;;24.59;45.51;99331.19;7308391;19;129400;-38
2022/06/16 04:53:21;;;;;;;;;;;;;;;24.62;45.02;99346.63;7310256;19;129227;-37
2022/06/16 04:55:56;;;;;;;;;;;;;;;24.61;44.75;99343.16;7307636;19;130605;-37
2022/06/16 04:58:22;;;;;;;;;;;;;;;24.60;44.44;99336.25;7307259;19;130100;-37
2022/06/16 05:00:48;;;;;;;;;;;;;;;24.60;44.76;99330.19;7306272;19;133087;-37
2022/06/16 05:03:14;;;;;;;;;;;;;;;24.60;44.54;99317.03;7299618;19;132303;-38
2022/06/16 05:05:39;;;;;;;;;;;;;;;24.64;44.67;99334.13;7307930;19;131047;-37
2022/06/16 05:08:05;;;;;;;;;;;;;;;24.64;44.65;99344.66;7313847;19;129153;-37
2022/06/16 05:10:30;;;;;;;;;;;;;;;24.79;48.13;99337.75;7318455;19;129400;-37
2022/06/16 05:12:55;;;;;;;;;;;;;;;24.98;49.22;99343.47;7304489;19;130168;-37
2022/06/16 05:15:20;;;;;;;;;;;;;;;25.11;50.07;99361.38;7303389;19;130349;-37
2022/06/16 05:17:46;;;;;;;;;;;;;;;25.16;50.26;99353.78;7312718;19;129302;-37
2022/06/16 05:20:11;;;;;;;;;;;;;;;25.24;49.85;99348.50;7312626;19;130840;-37
2022/06/16 05:22:37;;;;;;;;;;;;;;;25.19;50.67;99345.56;7309978;19;128733;-37
2022/06/16 05:25:02;;;;;;;;;;;;;;;25.31;49.92;99366.09;7315962;19;128985;-37
2022/06/16 05:27:27;;;;;;;;;;;;;;;25.31;50.22;99360.84;7310773;19;129267;-38
2022/06/16 05:29:53;;;;;;;;;;;;;;;25.32;50.52;99361.66;7310439;19;129596;-37
2022/06/16 05:32:18;;;;;;;;;;;;;;;25.33;50.76;99373.81;7315522;19;129107;-37
2022/06/16 05:34:44;;;;;;;;;;;;;;;25.35;51.07;99371.88;7315539;19;130968;-37
2022/06/16 05:37:09;;;;;;;;;;;;;;;24.75;45.63;99379.34;7316799;19;129404;-38
2022/06/16 05:39:35;;;;;;;;;;;;;;;24.63;45.37;99392.94;7315648;19;129233;-37
2022/06/16 05:42:00;;;;;;;;;;;;;;;24.59;44.99;99392.47;7318889;19;130883;-37
2022/06/16 05:44:25;;;;;;;;;;;;;;;24.59;45.46;99404.78;7314750;19;129204;-37
2022/06/16 05:46:51;;;;;;;;;;;;;;;24.58;44.73;99403.94;7318275;19;130158;-37
2022/06/16 05:49:16;;;;;;;;;;;;;;;24.59;44.15;99410.03;7312505;19;131296;-37
2022/06/16 05:51:42;;;;;;;;;;;;;;;24.51;44.15;99399.53;7313854;19;129397;-37
2022/06/16 05:54:07;;;;;;;;;;;;;;;24.62;44.13;99409.69;7313891;19;129713;-36
2022/06/16 05:56:33;;;;;;;;;;;;;;;24.63;44.01;99409.53;7318025;19;129175;-37
2022/06/16 05:58:58;;;;;;;;;;;;;;;24.79;49.45;99400.88;7311132;19;129488;-37
2022/06/16 06:01:24;;;;;;;;;;;;;;;25.00;49.54;99398.56;7315235;19;129531;-38
2022/06/16 06:03:49;;;;;;;;;;;;;;;25.10;49.78;99393.94;7314142;19;129007;-37
2022/06/16 06:06:14;;;;;;;;;;;;;;;25.18;50.45;99412.34;7315458;19;129332;-37
2022/06/16 06:17:04;;;;;;;;;;;;;;;25.31;50.37;99417.91;7316130;19;128958;-37
2022/06/16 06:19:31;;;;;;;;;;;;;;;25.32;50.57;99415.09;7311452;19;130421;-39
2022/06/16 06:22:01;;;;;;;;;;;;;;;25.32;51.36;99419.56;7317731;19;129329;-37
2022/06/16 06:24:27;;;;;;;;;;;;;;;25.19;47.99;99421.84;7312846;19;128896;-37
2022/06/16 06:26:53;;;;;;;;;;;;;;;24.69;45.44;99429.97;7317692;19;129704;-37
2022/06/16 06:29:18;;;;;;;;;;;;;;;24.62;45.28;99428.09;7311715;19;129525;-38
2022/06/16 06:31:45;;;;;;;;;;;;;;;24.51;44.70;99423.16;7317826;19;129255;-36
2022/06/16 06:34:10;;;;;;;;;;;;;;;24.58;45.07;99426.81;7311948;19;128981;-39
2022/06/16 06:36:35;;;;;;;;;;;;;;;24.60;44.40;99435.31;7314087;19;131114;-38
2022/06/16 06:39:00;;;;;;;;;;;;;;;24.60;44.85;99427.44;7309978;19;130013;-38
2022/06/16 06:41:26;;;;;;;;;;;;;;;24.53;44.32;99429.09;7306418;19;129438;-38
2022/06/16 06:43:51;;;;;;;;;;;;;;;24.62;44.06;99451.75;7311934;19;130440;-38
2022/06/16 06:46:16;;;;;;;;;;;;;;;24.64;44.88;99463.78;7308130;19;130371;-39
2022/06/16 06:48:42;;;;;;;;;;;;;;;24.87;49.38;99461.34;7311303;19;130396;-38
2022/06/16 06:51:07;;;;;;;;;;;;;;;25.05;49.57;99460.22;7310863;19;129037;-37
2022/06/16 06:53:32;;;;;;;;;;;;;;;25.13;49.69;99454.09;7314558;19;129326;-40
2022/06/16 06:55:57;;;;;;;;;;;;;;;25.13;50.42;99435.69;7311557;19;130156;-37
2022/06/16 06:58:23;;;;;;;;;;;;;;;25.25;49.94;99452.78;7313476;19;129188;-38
2022/06/16 07:00:51;;;;;;;;;;;;;;;25.17;50.34;99426.50;7305250;19;130448;-38
2022/06/16 07:03:17;;;;;;;;;;;;;;;25.20;50.10;99436.69;7298280;19;129086;-39
2022/06/16 07:05:42;;;;;;;;;;;;;;;25.26;50.74;99436.00;7300889;19;131256;-37
2022/06/16 07:08:07;;;;;;;;;;;;;;;25.34;50.33;99460.50;7311170;19;129772;-39
2022/06/16 07:10:32;;;;;;;;;;;;;;;25.36;50.62;99468.25;7310294;19;129307;-41
2022/06/16 07:12:58;;;;;;;;;;;;;;;24.85;45.12;99452.81;7309195;19;129349;-37
2022/06/16 07:15:23;;;;;;;;;;;;;;;24.69;45.03;99485.19;7314929;19;130257;-37
2022/06/16 07:17:49;;;;;;;;;;;;;;;24.63;45.24;99490.19;7309742;19;131230;-38
2022/06/16 07:20:16;;;;;;;;;;;;;;;24.60;44.93;99501.03;7310872;19;129240;-37
2022/06/16 07:22:43;;;;;;;;;;;;;;;24.59;44.76;99489.72;7310997;19;129427;-38
2022/06/16 07:25:08;;;;;;;;;;;;;;;24.60;44.78;99491.34;7306551;19;130097;-39
2022/06/16 07:27:34;;;;;;;;;;;;;;;24.61;44.46;99474.59;7308150;19;131182;-38
2022/06/16 07:29:59;;;;;;;;;;;;;;;24.61;44.39;99486.94;7309301;19;129026;-39
2022/06/16 07:32:24;;;;;;;;;;;;;;;24.51;44.11;99475.75;7310224;19;129239;-37
2022/06/16 07:34:50;;;;;;;;;;;;;;;24.62;44.59;99493.81;7315674;19;129059;-36
2022/06/16 07:37:15;;;;;;;;;;;;;;;24.85;48.80;99500.13;7312240;19;129633;-36
2022/06/16 07:39:41;;;;;;;;;;;;;;;25.04;49.65;99494.56;7311522;19;129479;-36
2022/06/16 07:42:08;;;;;;;;;;;;;;;25.13;49.59;99483.03;7307579;19;129296;-37
2022/06/16 07:44:33;;;;;;;;;;;;;;;25.19;50.17;99487.63;7310008;19;129833;-38
2022/06/16 07:46:59;;;;;;;;;;;;;;;25.25;49.82;99476.47;7314663;19;130404;-37
2022/06/16 07:49:26;;;;;;;;;;;;;;;25.28;50.66;99476.13;7307755;19;130299;-40
2022/06/16 07:51:52;;;;;;;;;;;;;;;25.31;50.06;99478.44;7308044;19;130503;-37
2022/06/16 07:54:18;;;;;;;;;;;;;;;25.31;50.82;99481.06;7312165;19;129724;-38
2022/06/16 07:56:43;;;;;;;;;;;;;;;25.34;51.04;99473.66;7313954;19;130310;-37
2022/06/16 07:59:08;;;;;;;;;;;;;;;25.33;50.42;99473.81;7310387;19;129518;-39
2022/06/16 08:01:34;;;;;;;;;;;;;;;25.22;48.04;99474.19;7313016;19;129267;-38
2022/06/16 08:04:05;;;;;;;;;;;;;;;24.61;45.27;99465.91;7311969;19;129218;-37
2022/06/16 08:06:30;;;;;;;;;;;;;;;24.60;44.70;99464.25;7314556;19;129871;-38
2022/06/16 08:08:56;;;;;;;;;;;;;;;24.61;44.92;99471.16;7311181;19;129646;-41
2022/06/16 08:14:05;;;;;;;;;;;;;;;24.62;44.75;99483.31;7312533;19;129023;-38
2022/06/16 08:16:30;;;;;;;;;;;;;;;24.62;44.60;99493.81;7313699;19;129672;-38
2022/06/16 08:18:56;;;;;;;;;;;;;;;24.61;44.20;99497.44;7309944;19;131052;-38
2022/06/16 08:21:21;;;;;;;;;;;;;;;24.53;44.74;99487.72;7313110;19;129318;-38
2022/06/16 08:23:47;;;;;;;;;;;;;;;24.65;44.39;99519.78;7312946;19;129837;-37
2022/06/16 08:26:12;;;;;;;;;;;;;;;24.76;48.92;99495.88;7312041;19;129700;-37
2022/06/16 08:28:38;;;;;;;;;;;;;;;24.98;49.75;99496.03;7310081;19;129780;-37
2022/06/16 08:31:04;;;;;;;;;;;;;;;25.10;50.39;99502.63;7311293;19;130479;-38
2022/06/16 08:33:29;;;;;;;;;;;;;;;25.17;49.72;99500.16;7312675;19;131001;-39
2022/06/16 08:35:54;;;;;;;;;;;;;;;25.23;50.16;99504.75;7311864;19;130247;-37
2022/06/16 08:38:20;;;;;;;;;;;;;;;25.24;50.53;99495.84;7311040;19;130024;-38
2022/06/16 08:40:46;;;;;;;;;;;;;;;25.27;50.33;99500.81;7308092;19;130418;-37
2022/06/16 08:43:24;;;;;;;;;;;;;;;25.22;50.62;99487.34;7309900;19;129405;-41
2022/06/16 08:45:53;;;;;;;;;;;;;;;25.32;50.64;99495.88;7312659;19;129261;-38
2022/06/16 08:48:38;;;;;;;;;;;;;;;25.29;51.08;99489.13;7311729;19;129587;-37
2022/06/16 08:51:11;;;;;;;;;;;;;;;24.86;45.63;99497.34;7304683;19;128986;-38
2022/06/16 08:53:55;;;;;;;;;;;;;;;24.65;44.99;99507.47;7309647;19;129548;-38
2022/06/16 08:56:24;;;;;;;;;;;;;;;24.54;45.00;99496.44;7309132;19;130622;-39
2022/06/16 08:58:58;;;;;;;;;;;;;;;24.60;44.85;99511.56;7309773;19;128826;-37
2022/06/16 09:01:36;;;;;;;;;;;;;;;24.61;45.17;99518.47;7308344;19;131028;-39
2022/06/16 09:04:05;;;;;;;;;;;;;;;24.62;44.27;99525.38;7308040;19;130902;-36
2022/06/16 09:06:30;;;;;;;;;;;;;;;24.61;44.87;99526.38;7311517;19;129283;-38
2022/06/16 09:09:08;;;;;;;;;;;;;;;24.62;44.26;99531.47;7309263;19;129259;-36
2022/06/16 09:11:45;;;;;;;;;;;;;;;24.51;44.13;99517.78;7311236;19;129224;-38
2022/06/16 09:14:11;;;;;;;;;;;;;;;24.83;49.56;99544.16;7310110;19;129010;-36
2022/06/16 09:16:45;;;;;;;;;;;;;;;24.90;49.46;99527.59;7308581;19;129408;-39
2022/06/16 09:19:34;;;;;;;;;;;;;;;25.11;49.63;99548.16;7307834;19;129338;-38
2022/06/16 09:22:26;;;;;;;;;;;;;;;25.09;50.11;99534.38;7305304;19;129037;-39
2022/06/16 09:24:57;;;;;;;;;;;;;;;25.25;50.74;99542.25;7304184;19;129814;-38
2022/06/16 09:27:49;;;;;;;;;;;;;;;25.28;50.13;99544.56;7306572;19;130207;-36
2022/06/16 09:30:19;;;;;;;;;;;;;;;25.29;50.49;99554.09;7304999;19;129028;-37
2022/06/16 09:32:53;;;;;;;;;;;;;;;25.31;50.85;99554.75;7307072;19;129848;-39
2022/06/16 09:35:24;;;;;;;;;;;;;;;25.30;50.50;99553.13;7309267;19;129611;-38
2022/06/16 09:37:52;;;;;;;;;;;;;;;25.23;51.20;99541.59;7306719;19;131057;-39
2022/06/16 09:40:33;;;;;;;;;;;;;;;24.88;45.14;99547.13;7305428;19;129865;-40
2022/06/16 09:43:10;;;;;;;;;;;;;;;24.63;45.27;99550.66;7308367;19;129588;-38
2022/06/16 09:45:39;;;;;;;;;;;;;;;24.59;44.80;99555.44;7304680;19;129856;-36
2022/06/16 09:48:11;;;;;;;;;;;;;;;24.59;45.35;99562.50;7307223;19;130184;-37
2022/06/16 09:50:36;;;;;;;;;;;;;;;24.60;44.83;99561.50;7304797;19;128939;-40
2022/06/16 09:53:04;;;;;;;;;;;;;;;24.57;44.42;99556.56;7306604;19;130211;-37
2022/06/16 09:55:30;;;;;;;;;;;;;;;24.61;44.27;99565.78;7317046;19;129449;-38
2022/06/16 09:57:58;;;;;;;;;;;;;;;24.62;44.49;99564.81;7310504;19;130029;-39
2022/06/16 10:00:24;;;;;;;;;;;;;;;24.63;44.37;99563.81;7313326;19;129120;-39
2022/06/16 10:02:50;;;;;;;;;;;;;;;24.64;44.67;99554.97;7315274;19;129437;-37
2022/06/16 10:05:17;;;;;;;;;;;;;;;24.90;49.23;99560.97;7315186;19;129102;-38
2022/06/16 10:07:50;;;;;;;;;;;;;;;25.04;49.28;99561.13;7313441;19;129468;-38
2022/06/16 10:10:21;;;;;;;;;;;;;;;25.10;49.38;99562.31;7314008;19;129247;-38
2022/06/16 10:13:09;;;;;;;;;;;;;;;25.18;50.40;99564.94;7317297;19;130049;-37
2022/06/16 10:15:34;;;;;;;;;;;;;;;25.24;50.43;99585.31;7315970;19;129142;-37
2022/06/16 10:18:00;;;;;;;;;;;;;;;25.27;50.56;99580.56;7312635;19;130119;-37
2022/06/16 10:20:26;;;;;;;;;;;;;;;25.28;50.71;99586.66;7306596;19;130535;-41
2022/06/16 10:23:11;;;;;;;;;;;;;;;25.31;50.34;99586.31;7313757;19;129381;-39
2022/06/16 10:25:41;;;;;;;;;;;;;;;25.33;50.45;99589.63;7309104;19;131089;-40
2022/06/16 10:28:21;;;;;;;;;;;;;;;25.33;50.60;99584.38;7312369;19;130826;-37
2022/06/16 10:30:46;;;;;;;;;;;;;;;25.04;47.85;99605.88;7315919;19;128996;-37
2022/06/16 10:33:14;;;;;;;;;;;;;;;25.26;51.13;99600.00;7315965;19;130130;-38
2022/06/16 10:36:00;;;;;;;;;;;;;;;25.23;50.94;99586.31;7315692;19;129452;-38
2022/06/16 10:38:29;;;;;;;;;;;;;;;25.31;51.37;99602.13;7313214;19;131019;-39
2022/06/16 10:40:55;;;;;;;;;;;;;;;25.34;51.34;99593.88;7315298;19;129535;-37
2022/06/16 10:43:21;;;;;;;;;;;;;;;25.35;51.75;99590.31;7314622;19;129025;-38
2022/06/16 10:45:54;;;;;;;;;;;;;;;25.36;51.71;99591.97;7315312;19;129206;-36
2022/06/16 10:48:28;;;;;;;;;;;;;;;25.34;51.47;99580.72;7314662;19;130971;-38
2022/06/16 10:51:04;;;;;;;;;;;;;;;25.34;51.79;99576.31;7315650;19;130912;-38
2022/06/16 10:53:34;;;;;;;;;;;;;;;25.35;51.71;99571.91;7315978;19;128640;-38
2022/06/16 10:56:01;;;;;;;;;;;;;;;25.35;51.50;99550.84;7314747;19;129155;-39
2022/06/16 10:58:41;;;;;;;;;;;;;;;25.34;51.59;99544.72;7313722;19;129162;-37
2022/06/16 11:01:16;;;;;;;;;;;;;;;25.34;51.89;99533.34;7315283;19;128828;-36
2022/06/16 11:03:43;;;;;;;;;;;;;;;25.34;51.66;99530.72;7313959;19;129088;-37
2022/06/16 11:06:11;;;;;;;;;;;;;;;25.33;51.66;99531.72;7300407;19;130083;-39
2022/06/16 11:08:39;;;;;;;;;;;;;;;25.31;51.98;99541.59;7311065;19;130644;-39
2022/06/16 11:11:04;;;;;;;;;;;;;;;25.29;52.32;99541.75;7313124;19;130520;-39
2022/06/16 11:13:30;;;;;;;;;;;;;;;25.23;52.43;99536.31;7309414;19;129806;-37
2022/06/16 11:15:55;;;;;;;;;;;;;;;25.34;51.87;99570.22;7310745;19;129614;-37
2022/06/16 11:18:22;;;;;;;;;;;;;;;25.31;51.89;99587.16;7307637;19;129541;-38
2022/06/16 11:20:49;;;;;;;;;;;;;;;25.33;52.20;99589.63;7311512;19;129421;-36
2022/06/16 11:23:29;;;;;;;;;;;;;;;25.29;52.23;99577.78;7313736;19;130397;-37
2022/06/16 11:26:01;;;;;;;;;;;;;;;24.64;46.25;99589.13;7309971;19;129384;-37
2022/06/16 11:28:26;;;;;;;;;;;;;;;24.96;52.16;99589.22;7308325;19;129250;-37
2022/06/16 11:30:54;;;;;;;;;;;;;;;25.10;52.51;99584.19;7307751;19;129847;-37
2022/06/16 11:34:06;;;;;;;;;;;;;;;25.16;51.86;99587.97;7308355;19;129045;-38
2022/06/16 11:36:11;;;;;;;;;;;;;;;25.23;52.19;99588.97;7311676;19;128974;-38
2022/06/16 11:38:40;;;;;;;;;;;;;;;25.24;51.96;99580.91;7313700;19;129236;-37
2022/06/16 11:41:08;;;;;;;;;;;;;;;25.24;52.58;99586.16;7312863;19;129164;-38
2022/06/16 11:43:58;;;;;;;;;;;;;;;25.26;52.58;99593.88;7314649;19;128851;-39
2022/06/16 11:46:46;;;;;;;;;;;;;;;25.23;52.74;99586.31;7312342;19;129400;-37
2022/06/16 11:49:14;;;;;;;;;;;;;;;25.26;52.65;99597.34;7311040;19;129498;-38
2022/06/16 11:51:52;;;;;;;;;;;;;;;25.27;52.27;99600.81;7313878;19;131361;-37
2022/06/16 11:54:17;;;;;;;;;;;;;;;25.28;52.34;99597.19;7313919;19;129068;-37
2022/06/16 11:56:43;;;;;;;;;;;;;;;25.26;52.35;99600.00;7313526;19;130173;-37
2022/06/16 11:59:24;;;;;;;;;;;;;;;25.25;52.45;99592.25;7309288;19;130031;-37
2022/06/16 12:02:12;;;;;;;;;;;;;;;25.25;52.49;99594.88;7315017;19;128811;-38
2022/06/16 12:04:50;;;;;;;;;;;;;;;25.25;52.95;99597.53;7310316;19;129994;-38
2022/06/16 12:07:34;;;;;;;;;;;;;;;25.14;52.52;99580.22;7314303;19;129173;-37
2022/06/16 12:09:59;;;;;;;;;;;;;;;25.27;52.26;99590.28;7310526;19;129562;-38
2022/06/16 12:12:43;;;;;;;;;;;;;;;25.24;52.42;99591.44;7314292;19;128963;-40
2022/06/16 12:15:26;;;;;;;;;;;;;;;24.63;46.91;99582.22;7312962;19;130656;-39
2022/06/16 12:18:05;;;;;;;;;;;;;;;24.86;52.29;99585.94;7308541;19;130227;-37
2022/06/16 12:20:30;;;;;;;;;;;;;;;25.03;52.78;99582.34;7310199;19;130313;-36
2022/06/16 12:23:04;;;;;;;;;;;;;;;25.09;52.43;99576.47;7310767;19;128947;-40
2022/06/16 12:25:48;;;;;;;;;;;;;;;25.06;52.20;99561.81;7307378;19;129251;-37
2022/06/16 12:28:23;;;;;;;;;;;;;;;25.19;52.79;99575.31;7308996;19;130583;-38
2022/06/16 12:31:08;;;;;;;;;;;;;;;25.20;52.65;99568.25;7299913;19;130287;-39
2022/06/16 12:33:41;;;;;;;;;;;;;;;25.23;52.33;99575.81;7308827;19;132813;-38
2022/06/16 12:36:11;;;;;;;;;;;;;;;25.24;52.59;99580.91;7308237;19;129629;-37
2022/06/16 12:38:42;;;;;;;;;;;;;;;25.23;52.70;99571.38;7309426;19;130208;-37
2022/06/16 12:41:13;;;;;;;;;;;;;;;25.24;52.88;99575.63;7310242;19;129560;-39
2022/06/16 12:43:41;;;;;;;;;;;;;;;25.25;52.71;99576.47;7309754;19;129073;-38
2022/06/16 12:46:09;;;;;;;;;;;;;;;25.27;52.81;99579.75;7310765;19;129569;-39
2022/06/16 12:48:56;;;;;;;;;;;;;;;25.27;52.71;99574.50;7310680;19;129171;-39
2022/06/16 12:51:25;;;;;;;;;;;;;;;25.20;52.73;99565.59;7310837;19;129598;-40
2022/06/16 12:53:57;;;;;;;;;;;;;;;25.25;53.35;99574.66;7310650;19;129427;-37
2022/06/16 12:56:34;;;;;;;;;;;;;;;25.25;52.71;99577.31;7310445;19;129905;-38
2022/06/16 12:59:05;;;;;;;;;;;;;;;25.23;53.10;99581.06;7307859;19;130268;-38
2022/06/16 13:01:32;;;;;;;;;;;;;;;25.24;53.40;99574.81;7310057;19;129692;-38
2022/06/16 13:04:07;;;;;;;;;;;;;;;24.71;47.45;99572.56;7311058;19;129933;-37